TimeEDT,TemperatureF,Dew PointF,Humidity,Sea Level PressureIn,VisibilityMPH,Wind Direction,Wind SpeedMPH,Gust SpeedMPH,PrecipitationIn,Events,Conditions,WindDirDegrees,DateUTC
12:54 AM,79.0,73.0,82,30.19,10.0,Calm,Calm,-,N/A,,Clear,0,2013-07-17 04:54:00
1:54 AM,79.0,73.9,84,30.19,10.0,Calm,Calm,-,N/A,,Scattered Clouds,0,2013-07-17 05:54:00
2:30 AM,80.6,73.4,79,30.20,10.0,NW,5.8,-,N/A,Thunderstorm,Mostly Cloudy,310,2013-07-17 06:30:00
2:54 AM,80.1,71.1,74,30.19,10.0,North,4.6,-,N/A,Thunderstorm,Thunderstorm,10,2013-07-17 06:54:00
3:54 AM,77.0,73.0,88,30.16,10.0,Calm,Calm,-,0.19,Rain,Light Rain,0,2013-07-17 07:54:00
4:54 AM,75.0,71.1,87,30.17,10.0,Calm,Calm,-,0.00,,Clear,0,2013-07-17 08:54:00
5:54 AM,73.9,71.1,91,30.19,10.0,Calm,Calm,-,N/A,,Clear,0,2013-07-17 09:54:00
6:54 AM,75.0,71.1,87,30.20,9.0,Calm,Calm,-,N/A,,Scattered Clouds,0,2013-07-17 10:54:00
7:54 AM,75.0,72.0,90,30.21,9.0,Calm,Calm,-,N/A,,Mostly Cloudy,0,2013-07-17 11:54:00
8:54 AM,80.1,73.9,81,30.22,10.0,North,4.6,-,N/A,,Scattered Clouds,360,2013-07-17 12:54:00
9:54 AM,84.0,75.0,74,30.22,10.0,NNE,3.5,-,N/A,,Clear,20,2013-07-17 13:54:00
10:54 AM,87.1,73.9,65,30.21,10.0,North,5.8,-,N/A,,Clear,10,2013-07-17 14:54:00
11:54 AM,90.0,73.0,57,30.20,10.0,North,6.9,-,N/A,,Clear,10,2013-07-17 15:54:00
12:54 PM,91.0,73.0,55,30.19,10.0,NNE,8.1,-,N/A,,Clear,20,2013-07-17 16:54:00
1:54 PM,91.0,72.0,53,30.19,10.0,NNE,5.8,-,N/A,,Partly Cloudy,30,2013-07-17 17:54:00
2:54 PM,91.9,71.1,50,30.16,10.0,NNE,10.4,-,N/A,,Partly Cloudy,30,2013-07-17 18:54:00
3:54 PM,91.0,72.0,53,30.15,10.0,ENE,6.9,-,N/A,,Scattered Clouds,70,2013-07-17 19:54:00
4:54 PM,91.0,73.9,57,30.13,10.0,SE,8.1,-,N/A,,Partly Cloudy,140,2013-07-17 20:54:00
5:54 PM,89.1,73.9,61,30.12,10.0,SE,5.8,-,N/A,,Partly Cloudy,140,2013-07-17 21:54:00
6:54 PM,87.1,72.0,61,30.12,10.0,SE,6.9,-,N/A,,Mostly Cloudy,140,2013-07-17 22:54:00
7:54 PM,84.0,75.0,74,30.14,10.0,SSW,3.5,-,N/A,,Partly Cloudy,210,2013-07-17 23:54:00
8:54 PM,82.0,75.9,82,30.15,10.0,Calm,Calm,-,N/A,,Scattered Clouds,0,2013-07-18 00:54:00
9:54 PM,81.0,75.9,85,30.16,10.0,Calm,Calm,-,N/A,,Overcast,0,2013-07-18 01:54:00
10:54 PM,80.1,75.9,87,30.16,9.0,Calm,Calm,-,N/A,,Clear,0,2013-07-18 02:54:00
11:54 PM,79.0,75.0,88,30.15,8.0,Calm,Calm,-,N/A,,Clear,0,2013-07-18 03:54:00